sensor_id;sensor_type;location;lat;lon;timestamp;temperature;humidity
24049;DHT22;12250;50.956;4.746;2023-12-28T00:00:20;11.90;99.90
24049;DHT22;12250;50.956;4.746;2023-12-28T00:02:46;11.80;99.90
24049;DHT22;12250;50.956;4.746;2023-12-28T00:05:12;11.80;99.90
24049;DHT22;12250;50.956;4.746;2023-12-28T00:07:38;11.70;99.90
24049;DHT22;12250;50.956;4.746;2023-12-28T00:10:04;11.70;99.90
24049;DHT22;12250;50.956;4.746;2023-12-28T00:12:30;11.70;99.90
24049;DHT22;12250;50.956;4.746;2023-12-28T00:14:55;11.60;99.90
24049;DHT22;12250;50.956;4.746;2023-12-28T00:17:21;11.60;99.90
24049;DHT22;12250;50.956;4.746;2023-12-28T00:19:47;11.60;99.90
24049;DHT22;12250;50.956;4.746;2023-12-28T00:22:13;11.50;99.90
24049;DHT22;12250;50.956;4.746;2023-12-28T00:24:38;11.50;99.90
24049;DHT22;12250;50.956;4.746;2023-12-28T00:27:04;11.50;99.90
24049;DHT22;12250;50.956;4.746;2023-12-28T00:29:30;11.50;99.90
24049;DHT22;12250;50.956;4.746;2023-12-28T00:31:55;11.60;99.90
24049;DHT22;12250;50.956;4.746;2023-12-28T00:34:21;11.70;99.90
24049;DHT22;12250;50.956;4.746;2023-12-28T00:36:47;11.70;99.90
24049;DHT22;12250;50.956;4.746;2023-12-28T00:39:12;11.70;99.90
24049;DHT22;12250;50.956;4.746;2023-12-28T00:41:39;11.70;99.90
24049;DHT22;12250;50.956;4.746;2023-12-28T00:44:04;11.80;99.90
24049;DHT22;12250;50.956;4.746;2023-12-28T00:46:32;11.80;99.90
24049;DHT22;12250;50.956;4.746;2023-12-28T00:48:58;11.80;99.90
24049;DHT22;12250;50.956;4.746;2023-12-28T00:51:24;11.70;99.90
24049;DHT22;12250;50.956;4.746;2023-12-28T00:53:49;11.70;99.90
24049;DHT22;12250;50.956;4.746;2023-12-28T00:56:15;11.70;99.90
24049;DHT22;12250;50.956;4.746;2023-12-28T00:58:41;11.70;99.90
24049;DHT22;12250;50.956;4.746;2023-12-28T01:01:09;11.70;99.90
24049;DHT22;12250;50.956;4.746;2023-12-28T01:03:35;11.70;99.90
24049;DHT22;12250;50.956;4.746;2023-12-28T01:06:00;11.70;99.90
24049;DHT22;12250;50.956;4.746;2023-12-28T01:08:26;11.80;99.90
24049;DHT22;12250;50.956;4.746;2023-12-28T01:10:52;11.70;99.90
24049;DHT22;12250;50.956;4.746;2023-12-28T01:13:17;11.60;99.90
24049;DHT22;12250;50.956;4.746;2023-12-28T01:15:44;11.60;99.90
24049;DHT22;12250;50.956;4.746;2023-12-28T01:18:09;11.50;99.90
24049;DHT22;12250;50.956;4.746;2023-12-28T01:20:35;11.50;99.90
24049;DHT22;12250;50.956;4.746;2023-12-28T01:23:01;11.40;99.90
24049;DHT22;12250;50.956;4.746;2023-12-28T01:25:27;11.50;99.90
24049;DHT22;12250;50.956;4.746;2023-12-28T01:27:53;11.50;99.90
24049;DHT22;12250;50.956;4.746;2023-12-28T01:30:19;11.50;99.90
24049;DHT22;12250;50.956;4.746;2023-12-28T01:32:44;11.50;99.90
24049;DHT22;12250;50.956;4.746;2023-12-28T01:35:10;11.50;99.90
24049;DHT22;12250;50.956;4.746;2023-12-28T01:37:36;11.40;99.90
24049;DHT22;12250;50.956;4.746;2023-12-28T01:40:02;11.40;99.90
24049;DHT22;12250;50.956;4.746;2023-12-28T01:42:28;11.30;99.90
24049;DHT22;12250;50.956;4.746;2023-12-28T01:44:56;11.30;99.90
24049;DHT22;12250;50.956;4.746;2023-12-28T01:47:24;11.30;99.90
24049;DHT22;12250;50.956;4.746;2023-12-28T01:49:50;11.20;99.90
24049;DHT22;12250;50.956;4.746;2023-12-28T01:52:16;11.20;99.90
24049;DHT22;12250;50.956;4.746;2023-12-28T01:54:41;11.10;99.90
24049;DHT22;12250;50.956;4.746;2023-12-28T01:57:08;11.10;99.90
24049;DHT22;12250;50.956;4.746;2023-12-28T01:59:34;11.00;99.90
24049;DHT22;12250;50.956;4.746;2023-12-28T02:02:00;11.00;99.90
24049;DHT22;12250;50.956;4.746;2023-12-28T02:04:26;11.00;99.90
24049;DHT22;12250;50.956;4.746;2023-12-28T02:07:00;10.90;99.90
24049;DHT22;12250;50.956;4.746;2023-12-28T02:09:26;10.80;99.90
24049;DHT22;12250;50.956;4.746;2023-12-28T02:11:52;10.80;99.90
24049;DHT22;12250;50.956;4.746;2023-12-28T02:14:20;10.80;99.90
24049;DHT22;12250;50.956;4.746;2023-12-28T02:17:06;10.70;99.90
24049;DHT22;12250;50.956;4.746;2023-12-28T02:19:54;10.70;99.90
24049;DHT22;12250;50.956;4.746;2023-12-28T02:22:23;10.60;99.90
24049;DHT22;12250;50.956;4.746;2023-12-28T02:25:10;10.60;99.90
24049;DHT22;12250;50.956;4.746;2023-12-28T02:27:46;10.50;99.90
24049;DHT22;12250;50.956;4.746;2023-12-28T02:30:17;10.50;99.90
24049;DHT22;12250;50.956;4.746;2023-12-28T02:33:12;10.40;99.90
24049;DHT22;12250;50.956;4.746;2023-12-28T02:36:02;10.50;99.90
24049;DHT22;12250;50.956;4.746;2023-12-28T02:38:32;10.40;99.90
24049;DHT22;12250;50.956;4.746;2023-12-28T02:40:59;10.40;99.90
24049;DHT22;12250;50.956;4.746;2023-12-28T02:43:26;10.40;99.90
24049;DHT22;12250;50.956;4.746;2023-12-28T02:45:52;10.30;99.90
24049;DHT22;12250;50.956;4.746;2023-12-28T02:48:18;10.30;99.90
24049;DHT22;12250;50.956;4.746;2023-12-28T02:50:43;10.20;99.90
24049;DHT22;12250;50.956;4.746;2023-12-28T02:53:09;10.20;99.90
24049;DHT22;12250;50.956;4.746;2023-12-28T02:55:35;10.30;99.90
24049;DHT22;12250;50.956;4.746;2023-12-28T02:58:00;10.40;99.90
24049;DHT22;12250;50.956;4.746;2023-12-28T03:00:26;10.50;99.90
24049;DHT22;12250;50.956;4.746;2023-12-28T03:02:52;10.60;99.90
24049;DHT22;12250;50.956;4.746;2023-12-28T03:05:18;10.60;99.90
24049;DHT22;12250;50.956;4.746;2023-12-28T03:07:44;10.70;99.90
24049;DHT22;12250;50.956;4.746;2023-12-28T03:10:11;10.70;99.90
24049;DHT22;12250;50.956;4.746;2023-12-28T03:12:37;10.70;99.90
24049;DHT22;12250;50.956;4.746;2023-12-28T03:15:03;10.60;99.90
24049;DHT22;12250;50.956;4.746;2023-12-28T03:17:29;10.60;99.90
24049;DHT22;12250;50.956;4.746;2023-12-28T03:19:58;10.60;99.90
24049;DHT22;12250;50.956;4.746;2023-12-28T03:22:23;10.70;99.90
24049;DHT22;12250;50.956;4.746;2023-12-28T03:24:49;10.70;99.90
24049;DHT22;12250;50.956;4.746;2023-12-28T03:27:15;10.70;99.90
24049;DHT22;12250;50.956;4.746;2023-12-28T03:29:42;10.60;99.90
24049;DHT22;12250;50.956;4.746;2023-12-28T03:32:08;10.60;99.90
24049;DHT22;12250;50.956;4.746;2023-12-28T03:34:34;10.50;99.90
24049;DHT22;12250;50.956;4.746;2023-12-28T03:37:00;10.60;99.90
24049;DHT22;12250;50.956;4.746;2023-12-28T03:39:26;10.60;99.90
24049;DHT22;12250;50.956;4.746;2023-12-28T03:41:52;10.70;99.90
24049;DHT22;12250;50.956;4.746;2023-12-28T03:44:22;10.70;99.90
24049;DHT22;12250;50.956;4.746;2023-12-28T03:46:51;10.70;99.90
24049;DHT22;12250;50.956;4.746;2023-12-28T03:49:17;10.80;99.90
24049;DHT22;12250;50.956;4.746;2023-12-28T03:51:43;10.70;99.90
24049;DHT22;12250;50.956;4.746;2023-12-28T03:54:09;10.80;99.90
24049;DHT22;12250;50.956;4.746;2023-12-28T03:56:35;10.80;99.90
24049;DHT22;12250;50.956;4.746;2023-12-28T03:59:01;10.80;99.90
24049;DHT22;12250;50.956;4.746;2023-12-28T04:01:27;10.90;99.90
24049;DHT22;12250;50.956;4.746;2023-12-28T04:03:52;11.00;99.90
24049;DHT22;12250;50.956;4.746;2023-12-28T04:06:18;11.00;99.90
24049;DHT22;12250;50.956;4.746;2023-12-28T04:08:44;11.00;99.90
24049;DHT22;12250;50.956;4.746;2023-12-28T04:11:09;11.10;99.90
24049;DHT22;12250;50.956;4.746;2023-12-28T04:13:36;11.20;99.90
24049;DHT22;12250;50.956;4.746;2023-12-28T04:16:02;11.30;99.90
24049;DHT22;12250;50.956;4.746;2023-12-28T04:18:29;11.40;99.90
24049;DHT22;12250;50.956;4.746;2023-12-28T04:20:55;11.40;99.90
24049;DHT22;12250;50.956;4.746;2023-12-28T04:23:21;11.50;99.90
24049;DHT22;12250;50.956;4.746;2023-12-28T04:25:46;11.50;99.90
24049;DHT22;12250;50.956;4.746;2023-12-28T04:28:12;11.60;99.90
24049;DHT22;12250;50.956;4.746;2023-12-28T04:30:38;11.60;99.90
24049;DHT22;12250;50.956;4.746;2023-12-28T04:33:04;11.50;99.90
24049;DHT22;12250;50.956;4.746;2023-12-28T04:35:29;11.50;99.90
24049;DHT22;12250;50.956;4.746;2023-12-28T04:37:56;11.40;99.90
24049;DHT22;12250;50.956;4.746;2023-12-28T04:40:21;11.40;99.90
24049;DHT22;12250;50.956;4.746;2023-12-28T04:42:47;11.40;99.90
24049;DHT22;12250;50.956;4.746;2023-12-28T04:45:13;11.40;99.90
24049;DHT22;12250;50.956;4.746;2023-12-28T04:47:39;11.40;99.90
24049;DHT22;12250;50.956;4.746;2023-12-28T04:50:06;11.40;99.90
24049;DHT22;12250;50.956;4.746;2023-12-28T04:52:32;11.30;99.90
24049;DHT22;12250;50.956;4.746;2023-12-28T04:54:58;11.30;99.90
24049;DHT22;12250;50.956;4.746;2023-12-28T04:57:23;11.40;99.90
24049;DHT22;12250;50.956;4.746;2023-12-28T04:59:51;11.30;99.90
24049;DHT22;12250;50.956;4.746;2023-12-28T05:02:17;11.40;99.90
24049;DHT22;12250;50.956;4.746;2023-12-28T05:04:42;11.30;99.90
24049;DHT22;12250;50.956;4.746;2023-12-28T05:07:08;11.40;99.90
24049;DHT22;12250;50.956;4.746;2023-12-28T05:09:34;11.40;99.90
24049;DHT22;12250;50.956;4.746;2023-12-28T05:12:00;11.50;99.90
24049;DHT22;12250;50.956;4.746;2023-12-28T05:14:25;11.60;99.90
24049;DHT22;12250;50.956;4.746;2023-12-28T05:16:51;11.60;99.90
24049;DHT22;12250;50.956;4.746;2023-12-28T05:19:17;11.60;99.90
24049;DHT22;12250;50.956;4.746;2023-12-28T05:21:43;11.60;99.90
24049;DHT22;12250;50.956;4.746;2023-12-28T05:24:08;11.60;99.90
24049;DHT22;12250;50.956;4.746;2023-12-28T05:26:34;11.60;99.90
24049;DHT22;12250;50.956;4.746;2023-12-28T05:29:00;11.50;99.90
24049;DHT22;12250;50.956;4.746;2023-12-28T05:31:26;11.40;99.90
24049;DHT22;12250;50.956;4.746;2023-12-28T05:33:51;11.30;99.90
24049;DHT22;12250;50.956;4.746;2023-12-28T05:36:17;11.20;99.90
24049;DHT22;12250;50.956;4.746;2023-12-28T05:38:43;11.20;99.90
24049;DHT22;12250;50.956;4.746;2023-12-28T05:41:11;11.20;99.90
24049;DHT22;12250;50.956;4.746;2023-12-28T05:43:37;11.30;99.90
24049;DHT22;12250;50.956;4.746;2023-12-28T05:46:04;11.40;99.90
24049;DHT22;12250;50.956;4.746;2023-12-28T05:48:30;11.40;99.90
24049;DHT22;12250;50.956;4.746;2023-12-28T05:50:57;11.40;99.90
24049;DHT22;12250;50.956;4.746;2023-12-28T05:53:25;11.40;99.90
24049;DHT22;12250;50.956;4.746;2023-12-28T05:55:52;11.40;99.90
24049;DHT22;12250;50.956;4.746;2023-12-28T05:58:18;11.40;99.90
24049;DHT22;12250;50.956;4.746;2023-12-28T06:00:43;11.40;99.90
24049;DHT22;12250;50.956;4.746;2023-12-28T06:03:11;11.50;99.90
24049;DHT22;12250;50.956;4.746;2023-12-28T06:05:37;11.60;99.90
24049;DHT22;12250;50.956;4.746;2023-12-28T06:08:03;11.40;99.90
24049;DHT22;12250;50.956;4.746;2023-12-28T06:10:29;11.40;99.90
24049;DHT22;12250;50.956;4.746;2023-12-28T06:12:54;11.30;99.90
24049;DHT22;12250;50.956;4.746;2023-12-28T06:15:20;11.30;99.90
24049;DHT22;12250;50.956;4.746;2023-12-28T06:17:46;11.10;99.90
24049;DHT22;12250;50.956;4.746;2023-12-28T06:20:12;11.00;99.90
24049;DHT22;12250;50.956;4.746;2023-12-28T06:22:37;11.00;99.90
24049;DHT22;12250;50.956;4.746;2023-12-28T06:25:04;10.80;99.90
24049;DHT22;12250;50.956;4.746;2023-12-28T06:27:30;10.80;99.90
24049;DHT22;12250;50.956;4.746;2023-12-28T06:29:56;10.80;99.90
24049;DHT22;12250;50.956;4.746;2023-12-28T06:32:21;10.80;99.90
24049;DHT22;12250;50.956;4.746;2023-12-28T06:34:47;10.80;99.90
24049;DHT22;12250;50.956;4.746;2023-12-28T06:37:14;10.90;99.90
24049;DHT22;12250;50.956;4.746;2023-12-28T06:39:41;10.90;99.90
24049;DHT22;12250;50.956;4.746;2023-12-28T06:42:06;10.80;99.90
24049;DHT22;12250;50.956;4.746;2023-12-28T06:44:32;10.80;99.90
24049;DHT22;12250;50.956;4.746;2023-12-28T06:46:58;10.70;99.90
24049;DHT22;12250;50.956;4.746;2023-12-28T06:49:25;10.70;99.90
24049;DHT22;12250;50.956;4.746;2023-12-28T06:51:51;10.60;99.90
24049;DHT22;12250;50.956;4.746;2023-12-28T06:54:17;10.60;99.90
24049;DHT22;12250;50.956;4.746;2023-12-28T06:56:43;10.50;99.90
24049;DHT22;12250;50.956;4.746;2023-12-28T06:59:09;10.50;99.90
24049;DHT22;12250;50.956;4.746;2023-12-28T07:01:38;10.50;99.90
24049;DHT22;12250;50.956;4.746;2023-12-28T07:04:04;10.50;99.90
24049;DHT22;12250;50.956;4.746;2023-12-28T07:06:30;10.40;99.90
24049;DHT22;12250;50.956;4.746;2023-12-28T07:08:55;10.40;99.90
24049;DHT22;12250;50.956;4.746;2023-12-28T07:11:21;10.50;99.90
24049;DHT22;12250;50.956;4.746;2023-12-28T07:13:47;10.40;99.90
24049;DHT22;12250;50.956;4.746;2023-12-28T07:16:13;10.40;99.90
24049;DHT22;12250;50.956;4.746;2023-12-28T07:18:39;10.40;99.90
24049;DHT22;12250;50.956;4.746;2023-12-28T07:21:05;10.40;99.90
24049;DHT22;12250;50.956;4.746;2023-12-28T07:23:34;10.30;99.90
24049;DHT22;12250;50.956;4.746;2023-12-28T07:26:00;10.30;99.90
24049;DHT22;12250;50.956;4.746;2023-12-28T07:28:26;10.30;99.90
24049;DHT22;12250;50.956;4.746;2023-12-28T07:30:51;10.30;99.90
24049;DHT22;12250;50.956;4.746;2023-12-28T07:33:17;10.30;99.90
24049;DHT22;12250;50.956;4.746;2023-12-28T07:35:42;10.40;99.90
24049;DHT22;12250;50.956;4.746;2023-12-28T07:38:08;10.40;99.90
24049;DHT22;12250;50.956;4.746;2023-12-28T07:40:34;10.40;99.90
24049;DHT22;12250;50.956;4.746;2023-12-28T07:42:59;10.40;99.90
24049;DHT22;12250;50.956;4.746;2023-12-28T07:45:26;10.40;99.90
24049;DHT22;12250;50.956;4.746;2023-12-28T07:47:52;10.40;99.90
24049;DHT22;12250;50.956;4.746;2023-12-28T07:50:18;10.40;99.90
24049;DHT22;12250;50.956;4.746;2023-12-28T07:52:45;10.40;99.90
24049;DHT22;12250;50.956;4.746;2023-12-28T07:55:12;10.20;99.90
24049;DHT22;12250;50.956;4.746;2023-12-28T07:57:37;10.20;99.90
24049;DHT22;12250;50.956;4.746;2023-12-28T08:00:04;10.20;99.90
24049;DHT22;12250;50.956;4.746;2023-12-28T08:02:30;10.20;99.90
24049;DHT22;12250;50.956;4.746;2023-12-28T08:04:55;10.20;99.90
24049;DHT22;12250;50.956;4.746;2023-12-28T08:07:21;10.20;99.90
24049;DHT22;12250;50.956;4.746;2023-12-28T08:09:47;10.30;99.90
24049;DHT22;12250;50.956;4.746;2023-12-28T08:12:12;10.20;99.90
24049;DHT22;12250;50.956;4.746;2023-12-28T08:14:38;10.30;99.90
24049;DHT22;12250;50.956;4.746;2023-12-28T08:17:04;10.30;99.90
24049;DHT22;12250;50.956;4.746;2023-12-28T08:19:30;10.30;99.90
24049;DHT22;12250;50.956;4.746;2023-12-28T08:21:56;10.30;99.90
24049;DHT22;12250;50.956;4.746;2023-12-28T08:24:22;10.30;99.90
24049;DHT22;12250;50.956;4.746;2023-12-28T08:26:48;10.40;99.90
24049;DHT22;12250;50.956;4.746;2023-12-28T08:29:13;10.40;99.90
24049;DHT22;12250;50.956;4.746;2023-12-28T08:31:39;10.50;99.90
24049;DHT22;12250;50.956;4.746;2023-12-28T08:34:05;10.60;99.90
24049;DHT22;12250;50.956;4.746;2023-12-28T08:36:30;10.60;99.90
24049;DHT22;12250;50.956;4.746;2023-12-28T08:38:56;10.70;99.90
24049;DHT22;12250;50.956;4.746;2023-12-28T08:41:22;10.80;99.90
24049;DHT22;12250;50.956;4.746;2023-12-28T08:43:50;10.70;99.90
24049;DHT22;12250;50.956;4.746;2023-12-28T08:46:16;10.80;99.90
24049;DHT22;12250;50.956;4.746;2023-12-28T08:48:42;10.90;99.90
24049;DHT22;12250;50.956;4.746;2023-12-28T08:51:09;11.00;99.90
24049;DHT22;12250;50.956;4.746;2023-12-28T08:53:36;11.20;99.90
24049;DHT22;12250;50.956;4.746;2023-12-28T08:56:01;11.40;99.90
24049;DHT22;12250;50.956;4.746;2023-12-28T08:58:27;11.50;99.90
24049;DHT22;12250;50.956;4.746;2023-12-28T09:00:53;11.70;99.90
24049;DHT22;12250;50.956;4.746;2023-12-28T09:03:19;11.80;99.90
24049;DHT22;12250;50.956;4.746;2023-12-28T09:05:44;11.90;99.90
24049;DHT22;12250;50.956;4.746;2023-12-28T09:08:10;11.90;99.90
24049;DHT22;12250;50.956;4.746;2023-12-28T09:10:36;12.00;99.90
24049;DHT22;12250;50.956;4.746;2023-12-28T09:13:04;12.00;99.90
24049;DHT22;12250;50.956;4.746;2023-12-28T09:15:31;12.00;99.90
24049;DHT22;12250;50.956;4.746;2023-12-28T09:17:56;12.20;99.90
24049;DHT22;12250;50.956;4.746;2023-12-28T09:20:22;12.30;99.90
24049;DHT22;12250;50.956;4.746;2023-12-28T09:22:48;12.30;99.90
24049;DHT22;12250;50.956;4.746;2023-12-28T09:25:18;12.50;99.90
24049;DHT22;12250;50.956;4.746;2023-12-28T09:27:44;12.50;99.90
24049;DHT22;12250;50.956;4.746;2023-12-28T09:30:10;12.60;99.90
24049;DHT22;12250;50.956;4.746;2023-12-28T09:32:36;12.70;99.90
24049;DHT22;12250;50.956;4.746;2023-12-28T09:35:02;12.80;99.90
24049;DHT22;12250;50.956;4.746;2023-12-28T09:37:27;12.80;99.90
24049;DHT22;12250;50.956;4.746;2023-12-28T09:39:53;12.90;99.90
24049;DHT22;12250;50.956;4.746;2023-12-28T09:42:40;12.90;99.90
24049;DHT22;12250;50.956;4.746;2023-12-28T09:45:07;13.10;99.90
24049;DHT22;12250;50.956;4.746;2023-12-28T09:47:35;13.30;99.90
24049;DHT22;12250;50.956;4.746;2023-12-28T09:50:01;13.50;99.90
24049;DHT22;12250;50.956;4.746;2023-12-28T09:52:27;13.70;99.90
24049;DHT22;12250;50.956;4.746;2023-12-28T09:54:52;13.70;99.90
24049;DHT22;12250;50.956;4.746;2023-12-28T09:57:19;13.80;99.90
24049;DHT22;12250;50.956;4.746;2023-12-28T09:59:45;13.90;99.90
24049;DHT22;12250;50.956;4.746;2023-12-28T10:02:11;13.90;99.90
24049;DHT22;12250;50.956;4.746;2023-12-28T10:04:37;14.00;99.90
24049;DHT22;12250;50.956;4.746;2023-12-28T10:07:03;14.00;99.90
24049;DHT22;12250;50.956;4.746;2023-12-28T10:09:29;13.90;99.90
24049;DHT22;12250;50.956;4.746;2023-12-28T10:11:56;13.90;99.90
24049;DHT22;12250;50.956;4.746;2023-12-28T10:14:21;14.00;99.90
24049;DHT22;12250;50.956;4.746;2023-12-28T10:16:47;14.00;99.90
24049;DHT22;12250;50.956;4.746;2023-12-28T10:19:13;14.10;99.90
24049;DHT22;12250;50.956;4.746;2023-12-28T10:21:40;14.00;99.90
24049;DHT22;12250;50.956;4.746;2023-12-28T10:24:06;13.90;99.90
24049;DHT22;12250;50.956;4.746;2023-12-28T10:26:31;13.80;99.90
24049;DHT22;12250;50.956;4.746;2023-12-28T10:29:00;13.80;99.90
24049;DHT22;12250;50.956;4.746;2023-12-28T10:31:27;13.80;99.90
24049;DHT22;12250;50.956;4.746;2023-12-28T10:33:52;13.90;99.90
24049;DHT22;12250;50.956;4.746;2023-12-28T10:36:19;13.90;99.90
24049;DHT22;12250;50.956;4.746;2023-12-28T10:38:47;14.00;99.90
24049;DHT22;12250;50.956;4.746;2023-12-28T10:41:17;14.10;99.90
24049;DHT22;12250;50.956;4.746;2023-12-28T10:43:46;14.00;99.90
24049;DHT22;12250;50.956;4.746;2023-12-28T10:46:27;14.00;99.90
24049;DHT22;12250;50.956;4.746;2023-12-28T10:48:59;14.00;99.90
24049;DHT22;12250;50.956;4.746;2023-12-28T10:51:25;14.00;99.90
24049;DHT22;12250;50.956;4.746;2023-12-28T11:02:28;13.90;99.90
24049;DHT22;12250;50.956;4.746;2023-12-28T11:04:55;13.80;99.90
24049;DHT22;12250;50.956;4.746;2023-12-28T11:07:21;13.90;99.90
24049;DHT22;12250;50.956;4.746;2023-12-28T11:09:48;13.90;99.90
24049;DHT22;12250;50.956;4.746;2023-12-28T11:12:16;14.00;99.90
24049;DHT22;12250;50.956;4.746;2023-12-28T11:14:45;14.10;99.90
24049;DHT22;12250;50.956;4.746;2023-12-28T11:17:15;14.20;99.90
24049;DHT22;12250;50.956;4.746;2023-12-28T11:19:41;14.30;99.90
24049;DHT22;12250;50.956;4.746;2023-12-28T11:22:08;14.40;99.90
24049;DHT22;12250;50.956;4.746;2023-12-28T11:24:34;14.50;99.90
24049;DHT22;12250;50.956;4.746;2023-12-28T11:27:00;14.60;99.90
24049;DHT22;12250;50.956;4.746;2023-12-28T11:29:29;14.70;99.90
24049;DHT22;12250;50.956;4.746;2023-12-28T11:31:59;14.60;99.90
24049;DHT22;12250;50.956;4.746;2023-12-28T11:34:28;14.60;99.90
24049;DHT22;12250;50.956;4.746;2023-12-28T11:36:55;14.50;99.90
24049;DHT22;12250;50.956;4.746;2023-12-28T11:39:41;14.40;99.90
24049;DHT22;12250;50.956;4.746;2023-12-28T11:42:10;14.30;99.90
24049;DHT22;12250;50.956;4.746;2023-12-28T11:44:40;14.30;99.90
24049;DHT22;12250;50.956;4.746;2023-12-28T11:47:21;14.30;99.90
24049;DHT22;12250;50.956;4.746;2023-12-28T11:49:48;14.30;99.90
24049;DHT22;12250;50.956;4.746;2023-12-28T11:52:30;14.30;99.90
24049;DHT22;12250;50.956;4.746;2023-12-28T11:54:57;14.40;99.90
24049;DHT22;12250;50.956;4.746;2023-12-28T11:57:23;14.50;99.90
24049;DHT22;12250;50.956;4.746;2023-12-28T11:59:54;14.60;99.90
24049;DHT22;12250;50.956;4.746;2023-12-28T12:02:21;14.80;99.90
24049;DHT22;12250;50.956;4.746;2023-12-28T12:04:46;14.80;99.90
24049;DHT22;12250;50.956;4.746;2023-12-28T12:07:13;14.70;99.90
24049;DHT22;12250;50.956;4.746;2023-12-28T12:09:38;14.70;99.90
24049;DHT22;12250;50.956;4.746;2023-12-28T12:12:06;14.60;99.90
24049;DHT22;12250;50.956;4.746;2023-12-28T12:14:32;14.60;99.90
24049;DHT22;12250;50.956;4.746;2023-12-28T12:17:00;14.50;99.90
24049;DHT22;12250;50.956;4.746;2023-12-28T12:19:26;14.50;99.90
24049;DHT22;12250;50.956;4.746;2023-12-28T12:21:52;14.50;99.90
24049;DHT22;12250;50.956;4.746;2023-12-28T12:24:19;14.50;99.90
24049;DHT22;12250;50.956;4.746;2023-12-28T12:26:48;14.30;99.90
24049;DHT22;12250;50.956;4.746;2023-12-28T12:29:14;14.30;99.90
24049;DHT22;12250;50.956;4.746;2023-12-28T12:31:40;14.30;99.90
24049;DHT22;12250;50.956;4.746;2023-12-28T12:34:10;14.30;99.90
24049;DHT22;12250;50.956;4.746;2023-12-28T12:36:37;14.20;99.90
24049;DHT22;12250;50.956;4.746;2023-12-28T12:39:03;14.30;99.90
24049;DHT22;12250;50.956;4.746;2023-12-28T12:41:33;14.30;99.90
24049;DHT22;12250;50.956;4.746;2023-12-28T12:43:59;14.20;99.90
24049;DHT22;12250;50.956;4.746;2023-12-28T12:46:26;14.20;99.90
24049;DHT22;12250;50.956;4.746;2023-12-28T12:48:59;14.20;99.90
24049;DHT22;12250;50.956;4.746;2023-12-28T12:51:25;14.20;99.90
24049;DHT22;12250;50.956;4.746;2023-12-28T12:53:56;14.20;99.90
24049;DHT22;12250;50.956;4.746;2023-12-28T12:56:23;14.20;99.90
24049;DHT22;12250;50.956;4.746;2023-12-28T12:58:49;14.10;99.90
24049;DHT22;12250;50.956;4.746;2023-12-28T13:01:15;14.10;99.90
24049;DHT22;12250;50.956;4.746;2023-12-28T13:03:40;14.10;99.90
24049;DHT22;12250;50.956;4.746;2023-12-28T13:06:06;14.00;99.90
24049;DHT22;12250;50.956;4.746;2023-12-28T13:08:33;14.00;99.90
24049;DHT22;12250;50.956;4.746;2023-12-28T13:10:58;13.90;99.90
24049;DHT22;12250;50.956;4.746;2023-12-28T13:13:24;13.80;99.90
24049;DHT22;12250;50.956;4.746;2023-12-28T13:15:50;13.80;99.90
24049;DHT22;12250;50.956;4.746;2023-12-28T13:18:15;13.80;99.90
24049;DHT22;12250;50.956;4.746;2023-12-28T13:20:41;13.70;99.90
24049;DHT22;12250;50.956;4.746;2023-12-28T13:23:08;13.60;99.90
24049;DHT22;12250;50.956;4.746;2023-12-28T13:25:34;13.50;99.90
24049;DHT22;12250;50.956;4.746;2023-12-28T13:28:00;13.50;99.90
24049;DHT22;12250;50.956;4.746;2023-12-28T13:30:25;13.60;99.90
24049;DHT22;12250;50.956;4.746;2023-12-28T13:32:54;13.40;99.90
24049;DHT22;12250;50.956;4.746;2023-12-28T13:35:22;13.40;99.90
24049;DHT22;12250;50.956;4.746;2023-12-28T13:37:48;13.40;99.90
24049;DHT22;12250;50.956;4.746;2023-12-28T13:40:13;13.40;99.90
24049;DHT22;12250;50.956;4.746;2023-12-28T13:42:39;13.20;99.90
24049;DHT22;12250;50.956;4.746;2023-12-28T13:45:05;13.20;99.90
24049;DHT22;12250;50.956;4.746;2023-12-28T13:47:31;13.10;99.90
24049;DHT22;12250;50.956;4.746;2023-12-28T13:49:56;13.10;99.90
24049;DHT22;12250;50.956;4.746;2023-12-28T13:52:22;13.00;99.90
24049;DHT22;12250;50.956;4.746;2023-12-28T13:54:48;13.00;99.90
24049;DHT22;12250;50.956;4.746;2023-12-28T13:57:14;13.00;99.90
24049;DHT22;12250;50.956;4.746;2023-12-28T13:59:39;13.00;99.90
24049;DHT22;12250;50.956;4.746;2023-12-28T14:02:05;12.90;99.90
24049;DHT22;12250;50.956;4.746;2023-12-28T14:04:31;12.90;99.90
24049;DHT22;12250;50.956;4.746;2023-12-28T14:06:57;13.00;99.90
24049;DHT22;12250;50.956;4.746;2023-12-28T14:09:22;12.90;99.90
24049;DHT22;12250;50.956;4.746;2023-12-28T14:11:49;12.90;99.90
24049;DHT22;12250;50.956;4.746;2023-12-28T14:14:15;12.90;99.90
24049;DHT22;12250;50.956;4.746;2023-12-28T14:16:41;12.90;99.90
24049;DHT22;12250;50.956;4.746;2023-12-28T14:19:07;12.90;99.90
24049;DHT22;12250;50.956;4.746;2023-12-28T14:21:37;12.90;99.90
24049;DHT22;12250;50.956;4.746;2023-12-28T14:24:04;13.00;99.90
24049;DHT22;12250;50.956;4.746;2023-12-28T14:26:32;12.90;99.90
24049;DHT22;12250;50.956;4.746;2023-12-28T14:28:59;12.80;99.90
24049;DHT22;12250;50.956;4.746;2023-12-28T14:31:25;12.80;99.90
24049;DHT22;12250;50.956;4.746;2023-12-28T14:33:52;12.80;99.90
24049;DHT22;12250;50.956;4.746;2023-12-28T14:36:38;12.70;99.90
24049;DHT22;12250;50.956;4.746;2023-12-28T14:39:05;12.60;99.90
24049;DHT22;12250;50.956;4.746;2023-12-28T14:41:35;12.60;99.90
24049;DHT22;12250;50.956;4.746;2023-12-28T14:44:01;12.50;99.90
24049;DHT22;12250;50.956;4.746;2023-12-28T14:46:27;12.40;99.90
24049;DHT22;12250;50.956;4.746;2023-12-28T14:48:53;12.50;99.90
24049;DHT22;12250;50.956;4.746;2023-12-28T14:51:19;12.50;99.90
24049;DHT22;12250;50.956;4.746;2023-12-28T14:53:45;12.40;99.90
24049;DHT22;12250;50.956;4.746;2023-12-28T14:56:11;12.40;99.90
24049;DHT22;12250;50.956;4.746;2023-12-28T14:58:43;12.40;99.90
24049;DHT22;12250;50.956;4.746;2023-12-28T15:01:10;12.40;99.90
24049;DHT22;12250;50.956;4.746;2023-12-28T15:03:36;12.40;99.90
24049;DHT22;12250;50.956;4.746;2023-12-28T15:06:04;12.30;99.90
24049;DHT22;12250;50.956;4.746;2023-12-28T15:08:30;12.40;99.90
24049;DHT22;12250;50.956;4.746;2023-12-28T15:10:56;12.30;99.90
24049;DHT22;12250;50.956;4.746;2023-12-28T15:13:23;12.30;99.90
24049;DHT22;12250;50.956;4.746;2023-12-28T15:15:49;12.20;99.90
24049;DHT22;12250;50.956;4.746;2023-12-28T15:18:17;12.10;99.90
24049;DHT22;12250;50.956;4.746;2023-12-28T15:20:46;12.10;99.90
24049;DHT22;12250;50.956;4.746;2023-12-28T15:23:13;12.00;99.90
24049;DHT22;12250;50.956;4.746;2023-12-28T15:25:40;12.00;99.90
24049;DHT22;12250;50.956;4.746;2023-12-28T15:28:05;12.00;99.90
24049;DHT22;12250;50.956;4.746;2023-12-28T15:30:31;11.90;99.90
24049;DHT22;12250;50.956;4.746;2023-12-28T15:32:57;11.90;99.90
24049;DHT22;12250;50.956;4.746;2023-12-28T15:35:22;11.80;99.90